sensor_id;sensor_type;location;lat;lon;timestamp;temperature;humidity
18384;DHT22;9318;48.644;9.456;2023-05-10T00:00:54;14.20;99.90
18384;DHT22;9318;48.644;9.456;2023-05-10T00:03:21;14.20;99.90
18384;DHT22;9318;48.644;9.456;2023-05-10T00:05:48;14.20;99.90
18384;DHT22;9318;48.644;9.456;2023-05-10T00:08:16;14.20;99.90
18384;DHT22;9318;48.644;9.456;2023-05-10T00:10:42;14.20;99.90
18384;DHT22;9318;48.644;9.456;2023-05-10T00:13:09;14.20;99.90
18384;DHT22;9318;48.644;9.456;2023-05-10T00:15:36;14.20;99.90
18384;DHT22;9318;48.644;9.456;2023-05-10T00:18:03;14.10;99.90
18384;DHT22;9318;48.644;9.456;2023-05-10T00:20:30;14.10;99.90
18384;DHT22;9318;48.644;9.456;2023-05-10T00:22:56;14.10;99.90
18384;DHT22;9318;48.644;9.456;2023-05-10T00:25:24;14.10;99.90
18384;DHT22;9318;48.644;9.456;2023-05-10T00:27:51;14.10;99.90
18384;DHT22;9318;48.644;9.456;2023-05-10T00:30:20;14.10;99.90
18384;DHT22;9318;48.644;9.456;2023-05-10T00:32:47;14.10;99.90
18384;DHT22;9318;48.644;9.456;2023-05-10T00:35:15;14.00;99.90
18384;DHT22;9318;48.644;9.456;2023-05-10T00:37:42;13.90;99.90
18384;DHT22;9318;48.644;9.456;2023-05-10T00:40:09;13.90;99.90
18384;DHT22;9318;48.644;9.456;2023-05-10T00:42:37;13.80;99.90
18384;DHT22;9318;48.644;9.456;2023-05-10T00:45:05;13.70;99.90
18384;DHT22;9318;48.644;9.456;2023-05-10T00:47:32;13.70;99.90
18384;DHT22;9318;48.644;9.456;2023-05-10T00:49:59;13.70;99.90
18384;DHT22;9318;48.644;9.456;2023-05-10T00:52:26;13.60;99.90
18384;DHT22;9318;48.644;9.456;2023-05-10T00:54:55;13.60;99.90
18384;DHT22;9318;48.644;9.456;2023-05-10T00:57:22;13.50;99.90
18384;DHT22;9318;48.644;9.456;2023-05-10T00:59:50;13.50;99.90
18384;DHT22;9318;48.644;9.456;2023-05-10T01:02:18;13.40;99.90
18384;DHT22;9318;48.644;9.456;2023-05-10T01:04:44;13.40;99.90
18384;DHT22;9318;48.644;9.456;2023-05-10T01:07:11;13.40;99.90
18384;DHT22;9318;48.644;9.456;2023-05-10T01:09:38;13.40;99.90
18384;DHT22;9318;48.644;9.456;2023-05-10T01:12:05;13.30;99.90
18384;DHT22;9318;48.644;9.456;2023-05-10T01:14:34;13.20;99.90
18384;DHT22;9318;48.644;9.456;2023-05-10T01:17:04;13.20;99.90
18384;DHT22;9318;48.644;9.456;2023-05-10T01:19:31;13.20;99.90
18384;DHT22;9318;48.644;9.456;2023-05-10T01:22:08;13.20;99.90
18384;DHT22;9318;48.644;9.456;2023-05-10T01:25:02;13.20;99.90
18384;DHT22;9318;48.644;9.456;2023-05-10T01:27:47;13.20;99.90
18384;DHT22;9318;48.644;9.456;2023-05-10T01:31:01;13.10;99.90
18384;DHT22;9318;48.644;9.456;2023-05-10T01:33:35;13.10;99.90
18384;DHT22;9318;48.644;9.456;2023-05-10T01:36:08;13.10;99.90
18384;DHT22;9318;48.644;9.456;2023-05-10T01:38:43;13.10;99.90
18384;DHT22;9318;48.644;9.456;2023-05-10T01:41:16;13.10;99.90
18384;DHT22;9318;48.644;9.456;2023-05-10T01:43:50;13.00;99.90
18384;DHT22;9318;48.644;9.456;2023-05-10T01:46:27;13.00;99.90
18384;DHT22;9318;48.644;9.456;2023-05-10T01:48:57;13.00;99.90
18384;DHT22;9318;48.644;9.456;2023-05-10T01:51:27;13.00;99.90
18384;DHT22;9318;48.644;9.456;2023-05-10T01:54:00;13.00;99.90
18384;DHT22;9318;48.644;9.456;2023-05-10T01:56:30;13.00;99.90
18384;DHT22;9318;48.644;9.456;2023-05-10T01:58:59;13.00;99.90
18384;DHT22;9318;48.644;9.456;2023-05-10T02:01:26;13.00;99.90
18384;DHT22;9318;48.644;9.456;2023-05-10T02:03:56;12.90;99.90
18384;DHT22;9318;48.644;9.456;2023-05-10T02:06:24;12.90;99.90
18384;DHT22;9318;48.644;9.456;2023-05-10T02:08:53;12.90;99.90
18384;DHT22;9318;48.644;9.456;2023-05-10T02:11:20;12.90;99.90
18384;DHT22;9318;48.644;9.456;2023-05-10T02:13:49;12.90;99.90
18384;DHT22;9318;48.644;9.456;2023-05-10T02:16:17;12.90;99.90
18384;DHT22;9318;48.644;9.456;2023-05-10T02:18:45;12.90;99.90
18384;DHT22;9318;48.644;9.456;2023-05-10T02:21:14;12.80;99.90
18384;DHT22;9318;48.644;9.456;2023-05-10T02:23:43;12.80;99.90
18384;DHT22;9318;48.644;9.456;2023-05-10T02:26:10;12.80;99.90
18384;DHT22;9318;48.644;9.456;2023-05-10T02:28:39;12.90;99.90
18384;DHT22;9318;48.644;9.456;2023-05-10T02:31:07;12.80;99.90
18384;DHT22;9318;48.644;9.456;2023-05-10T02:33:35;12.90;99.90
18384;DHT22;9318;48.644;9.456;2023-05-10T02:36:03;12.80;99.90
18384;DHT22;9318;48.644;9.456;2023-05-10T02:38:33;12.80;99.90
18384;DHT22;9318;48.644;9.456;2023-05-10T02:41:01;12.70;99.90
18384;DHT22;9318;48.644;9.456;2023-05-10T02:43:30;12.70;99.90
18384;DHT22;9318;48.644;9.456;2023-05-10T02:45:58;12.60;99.90
18384;DHT22;9318;48.644;9.456;2023-05-10T02:48:25;12.60;99.90
18384;DHT22;9318;48.644;9.456;2023-05-10T02:50:55;12.60;99.90
18384;DHT22;9318;48.644;9.456;2023-05-10T02:53:23;12.60;99.90
18384;DHT22;9318;48.644;9.456;2023-05-10T02:55:58;12.60;99.90
18384;DHT22;9318;48.644;9.456;2023-05-10T02:58:26;12.60;99.90
18384;DHT22;9318;48.644;9.456;2023-05-10T03:00:53;12.60;99.90
18384;DHT22;9318;48.644;9.456;2023-05-10T03:03:19;12.60;99.90
18384;DHT22;9318;48.644;9.456;2023-05-10T03:05:46;12.60;99.90
18384;DHT22;9318;48.644;9.456;2023-05-10T03:08:13;12.70;99.90
18384;DHT22;9318;48.644;9.456;2023-05-10T03:10:46;12.70;99.90
18384;DHT22;9318;48.644;9.456;2023-05-10T03:13:25;12.70;99.90
18384;DHT22;9318;48.644;9.456;2023-05-10T03:15:59;12.70;99.90
18384;DHT22;9318;48.644;9.456;2023-05-10T03:18:31;12.70;99.90
18384;DHT22;9318;48.644;9.456;2023-05-10T03:21:02;12.70;99.90
18384;DHT22;9318;48.644;9.456;2023-05-10T03:23:36;12.70;99.90
18384;DHT22;9318;48.644;9.456;2023-05-10T03:26:07;12.70;99.90
18384;DHT22;9318;48.644;9.456;2023-05-10T03:28:36;12.70;99.90
18384;DHT22;9318;48.644;9.456;2023-05-10T03:31:04;12.70;99.90
18384;DHT22;9318;48.644;9.456;2023-05-10T03:33:32;12.70;99.90
18384;DHT22;9318;48.644;9.456;2023-05-10T03:35:58;12.70;99.90
18384;DHT22;9318;48.644;9.456;2023-05-10T03:38:25;12.80;99.90
18384;DHT22;9318;48.644;9.456;2023-05-10T03:40:52;12.80;99.90
18384;DHT22;9318;48.644;9.456;2023-05-10T03:43:19;12.80;99.90
18384;DHT22;9318;48.644;9.456;2023-05-10T03:45:47;12.80;99.90
18384;DHT22;9318;48.644;9.456;2023-05-10T03:48:13;12.80;99.90
18384;DHT22;9318;48.644;9.456;2023-05-10T03:50:40;12.80;99.90
18384;DHT22;9318;48.644;9.456;2023-05-10T03:53:08;12.80;99.90
18384;DHT22;9318;48.644;9.456;2023-05-10T03:55:35;12.80;99.90
18384;DHT22;9318;48.644;9.456;2023-05-10T03:58:01;12.80;99.90
18384;DHT22;9318;48.644;9.456;2023-05-10T04:00:28;12.80;99.90
18384;DHT22;9318;48.644;9.456;2023-05-10T04:02:56;12.80;99.90
18384;DHT22;9318;48.644;9.456;2023-05-10T04:05:23;12.80;99.90
18384;DHT22;9318;48.644;9.456;2023-05-10T04:07:50;12.80;99.90
18384;DHT22;9318;48.644;9.456;2023-05-10T04:10:17;12.80;99.90
18384;DHT22;9318;48.644;9.456;2023-05-10T04:12:43;12.80;99.90
18384;DHT22;9318;48.644;9.456;2023-05-10T04:15:10;12.80;99.90
18384;DHT22;9318;48.644;9.456;2023-05-10T04:17:37;12.80;99.90
18384;DHT22;9318;48.644;9.456;2023-05-10T04:20:06;12.80;99.90
18384;DHT22;9318;48.644;9.456;2023-05-10T04:22:33;12.80;99.90
18384;DHT22;9318;48.644;9.456;2023-05-10T04:25:00;12.80;99.90
18384;DHT22;9318;48.644;9.456;2023-05-10T04:27:27;12.80;99.90
18384;DHT22;9318;48.644;9.456;2023-05-10T04:29:54;12.80;99.90
18384;DHT22;9318;48.644;9.456;2023-05-10T04:32:20;12.80;99.90
18384;DHT22;9318;48.644;9.456;2023-05-10T04:34:47;12.90;99.90
18384;DHT22;9318;48.644;9.456;2023-05-10T04:37:15;12.90;99.90
18384;DHT22;9318;48.644;9.456;2023-05-10T04:39:42;12.90;99.90
18384;DHT22;9318;48.644;9.456;2023-05-10T04:42:09;12.90;99.90
18384;DHT22;9318;48.644;9.456;2023-05-10T04:44:36;12.90;99.90
18384;DHT22;9318;48.644;9.456;2023-05-10T04:47:04;13.00;99.90
18384;DHT22;9318;48.644;9.456;2023-05-10T04:49:30;13.00;99.90
18384;DHT22;9318;48.644;9.456;2023-05-10T04:51:57;13.00;99.90
18384;DHT22;9318;48.644;9.456;2023-05-10T04:54:25;13.10;99.90
18384;DHT22;9318;48.644;9.456;2023-05-10T04:56:52;13.10;99.90
18384;DHT22;9318;48.644;9.456;2023-05-10T04:59:19;13.10;99.90
18384;DHT22;9318;48.644;9.456;2023-05-10T05:01:46;13.20;99.90
18384;DHT22;9318;48.644;9.456;2023-05-10T05:04:12;13.10;99.90
18384;DHT22;9318;48.644;9.456;2023-05-10T05:06:40;13.20;99.90
18384;DHT22;9318;48.644;9.456;2023-05-10T05:09:06;13.30;99.90
18384;DHT22;9318;48.644;9.456;2023-05-10T05:11:34;13.30;99.90
18384;DHT22;9318;48.644;9.456;2023-05-10T05:14:01;13.30;99.90
18384;DHT22;9318;48.644;9.456;2023-05-10T05:16:30;13.30;99.90
18384;DHT22;9318;48.644;9.456;2023-05-10T05:18:57;13.30;99.90
18384;DHT22;9318;48.644;9.456;2023-05-10T05:21:23;13.30;99.90
18384;DHT22;9318;48.644;9.456;2023-05-10T05:23:52;13.40;99.90
18384;DHT22;9318;48.644;9.456;2023-05-10T05:26:18;13.50;99.90
18384;DHT22;9318;48.644;9.456;2023-05-10T05:28:47;13.60;99.90
18384;DHT22;9318;48.644;9.456;2023-05-10T05:31:14;13.80;99.90
18384;DHT22;9318;48.644;9.456;2023-05-10T05:33:40;13.80;99.90
18384;DHT22;9318;48.644;9.456;2023-05-10T05:36:07;13.90;99.90
18384;DHT22;9318;48.644;9.456;2023-05-10T05:38:34;14.00;99.90
18384;DHT22;9318;48.644;9.456;2023-05-10T05:41:01;14.10;99.90
18384;DHT22;9318;48.644;9.456;2023-05-10T05:43:28;14.10;99.90
18384;DHT22;9318;48.644;9.456;2023-05-10T05:45:56;14.20;99.90
18384;DHT22;9318;48.644;9.456;2023-05-10T05:48:24;14.20;99.90
18384;DHT22;9318;48.644;9.456;2023-05-10T05:50:54;14.20;99.90
18384;DHT22;9318;48.644;9.456;2023-05-10T05:53:21;14.20;99.90
18384;DHT22;9318;48.644;9.456;2023-05-10T05:55:52;14.20;99.90
18384;DHT22;9318;48.644;9.456;2023-05-10T05:58:19;14.20;99.90
18384;DHT22;9318;48.644;9.456;2023-05-10T06:00:46;14.30;99.90
18384;DHT22;9318;48.644;9.456;2023-05-10T06:03:14;14.30;99.90
18384;DHT22;9318;48.644;9.456;2023-05-10T06:05:41;14.30;99.90
18384;DHT22;9318;48.644;9.456;2023-05-10T06:08:07;14.30;99.90
18384;DHT22;9318;48.644;9.456;2023-05-10T06:10:34;14.30;99.90
18384;DHT22;9318;48.644;9.456;2023-05-10T06:13:01;14.30;99.90
18384;DHT22;9318;48.644;9.456;2023-05-10T06:15:28;14.20;99.90
18384;DHT22;9318;48.644;9.456;2023-05-10T06:17:55;14.10;99.90
18384;DHT22;9318;48.644;9.456;2023-05-10T06:20:24;14.10;99.90
18384;DHT22;9318;48.644;9.456;2023-05-10T06:22:50;14.00;99.90
18384;DHT22;9318;48.644;9.456;2023-05-10T06:25:17;14.00;99.90
18384;DHT22;9318;48.644;9.456;2023-05-10T06:27:44;14.00;99.90
18384;DHT22;9318;48.644;9.456;2023-05-10T06:30:11;14.00;99.90
18384;DHT22;9318;48.644;9.456;2023-05-10T06:32:40;14.00;99.90
18384;DHT22;9318;48.644;9.456;2023-05-10T06:35:09;14.00;99.90
18384;DHT22;9318;48.644;9.456;2023-05-10T06:37:37;14.10;99.90
18384;DHT22;9318;48.644;9.456;2023-05-10T06:40:05;14.10;99.90
18384;DHT22;9318;48.644;9.456;2023-05-10T06:42:32;14.10;99.90
18384;DHT22;9318;48.644;9.456;2023-05-10T06:44:59;14.10;99.90
18384;DHT22;9318;48.644;9.456;2023-05-10T06:47:26;14.20;99.90
18384;DHT22;9318;48.644;9.456;2023-05-10T06:49:52;14.20;99.90
18384;DHT22;9318;48.644;9.456;2023-05-10T06:52:19;14.20;99.90
18384;DHT22;9318;48.644;9.456;2023-05-10T06:54:47;14.20;99.90
18384;DHT22;9318;48.644;9.456;2023-05-10T06:57:14;14.20;99.90
18384;DHT22;9318;48.644;9.456;2023-05-10T06:59:41;14.20;99.90
18384;DHT22;9318;48.644;9.456;2023-05-10T07:02:07;14.30;99.90
18384;DHT22;9318;48.644;9.456;2023-05-10T07:04:34;14.30;99.90
18384;DHT22;9318;48.644;9.456;2023-05-10T07:07:01;14.40;99.90
18384;DHT22;9318;48.644;9.456;2023-05-10T07:09:28;14.50;99.90
18384;DHT22;9318;48.644;9.456;2023-05-10T07:11:56;14.60;99.90
18384;DHT22;9318;48.644;9.456;2023-05-10T07:14:23;14.70;99.90
18384;DHT22;9318;48.644;9.456;2023-05-10T07:16:50;14.80;99.90
18384;DHT22;9318;48.644;9.456;2023-05-10T07:19:16;14.70;99.90
18384;DHT22;9318;48.644;9.456;2023-05-10T07:21:43;14.70;99.90
18384;DHT22;9318;48.644;9.456;2023-05-10T07:24:10;14.70;99.90
18384;DHT22;9318;48.644;9.456;2023-05-10T07:26:37;14.80;99.90
18384;DHT22;9318;48.644;9.456;2023-05-10T07:29:05;14.80;99.90
18384;DHT22;9318;48.644;9.456;2023-05-10T07:31:32;14.80;99.90
18384;DHT22;9318;48.644;9.456;2023-05-10T07:33:58;14.70;99.90
18384;DHT22;9318;48.644;9.456;2023-05-10T07:36:25;14.70;99.90
18384;DHT22;9318;48.644;9.456;2023-05-10T07:38:53;14.70;99.90
18384;DHT22;9318;48.644;9.456;2023-05-10T07:41:20;14.70;99.90
18384;DHT22;9318;48.644;9.456;2023-05-10T07:43:47;14.80;99.90
18384;DHT22;9318;48.644;9.456;2023-05-10T07:46:15;15.00;99.90
18384;DHT22;9318;48.644;9.456;2023-05-10T07:48:42;15.10;99.90
18384;DHT22;9318;48.644;9.456;2023-05-10T07:51:09;15.20;99.90
18384;DHT22;9318;48.644;9.456;2023-05-10T07:53:36;15.50;99.90
18384;DHT22;9318;48.644;9.456;2023-05-10T07:56:20;15.60;99.90
18384;DHT22;9318;48.644;9.456;2023-05-10T07:58:47;15.80;99.90
18384;DHT22;9318;48.644;9.456;2023-05-10T08:01:14;15.80;99.90
18384;DHT22;9318;48.644;9.456;2023-05-10T08:03:42;15.90;99.90
18384;DHT22;9318;48.644;9.456;2023-05-10T08:06:08;15.90;99.90
18384;DHT22;9318;48.644;9.456;2023-05-10T08:08:35;15.80;99.90
18384;DHT22;9318;48.644;9.456;2023-05-10T08:11:03;15.90;99.90
18384;DHT22;9318;48.644;9.456;2023-05-10T08:13:30;15.90;99.90
18384;DHT22;9318;48.644;9.456;2023-05-10T08:15:57;15.90;99.90
18384;DHT22;9318;48.644;9.456;2023-05-10T08:18:24;15.90;99.90
18384;DHT22;9318;48.644;9.456;2023-05-10T08:20:52;15.70;99.90
18384;DHT22;9318;48.644;9.456;2023-05-10T08:23:18;15.60;99.90
18384;DHT22;9318;48.644;9.456;2023-05-10T08:25:46;15.70;99.90
18384;DHT22;9318;48.644;9.456;2023-05-10T08:28:12;15.80;99.90
18384;DHT22;9318;48.644;9.456;2023-05-10T08:30:39;15.90;99.90
18384;DHT22;9318;48.644;9.456;2023-05-10T08:33:06;16.00;99.90
18384;DHT22;9318;48.644;9.456;2023-05-10T08:35:32;16.00;99.90
18384;DHT22;9318;48.644;9.456;2023-05-10T08:38:01;15.90;99.90
18384;DHT22;9318;48.644;9.456;2023-05-10T08:40:28;15.80;99.90
18384;DHT22;9318;48.644;9.456;2023-05-10T08:42:58;15.80;99.90
18384;DHT22;9318;48.644;9.456;2023-05-10T08:45:32;15.70;99.90
18384;DHT22;9318;48.644;9.456;2023-05-10T08:48:01;15.70;99.90
18384;DHT22;9318;48.644;9.456;2023-05-10T08:50:28;15.60;99.90
18384;DHT22;9318;48.644;9.456;2023-05-10T08:52:58;15.40;99.90
18384;DHT22;9318;48.644;9.456;2023-05-10T08:55:27;15.30;99.90
18384;DHT22;9318;48.644;9.456;2023-05-10T08:57:54;15.30;99.90
18384;DHT22;9318;48.644;9.456;2023-05-10T09:00:22;15.20;99.90
18384;DHT22;9318;48.644;9.456;2023-05-10T09:02:49;15.20;99.90
18384;DHT22;9318;48.644;9.456;2023-05-10T09:05:16;15.40;99.90
18384;DHT22;9318;48.644;9.456;2023-05-10T09:07:43;15.50;99.90
18384;DHT22;9318;48.644;9.456;2023-05-10T09:10:11;15.60;99.90
18384;DHT22;9318;48.644;9.456;2023-05-10T09:12:39;15.60;99.90
18384;DHT22;9318;48.644;9.456;2023-05-10T09:15:07;15.60;99.90
18384;DHT22;9318;48.644;9.456;2023-05-10T09:17:36;15.70;99.90
18384;DHT22;9318;48.644;9.456;2023-05-10T09:20:04;15.70;99.90
18384;DHT22;9318;48.644;9.456;2023-05-10T09:22:31;15.60;99.90
18384;DHT22;9318;48.644;9.456;2023-05-10T09:25:08;15.60;99.90
18384;DHT22;9318;48.644;9.456;2023-05-10T09:27:36;15.60;99.90
18384;DHT22;9318;48.644;9.456;2023-05-10T09:30:06;15.70;99.90
18384;DHT22;9318;48.644;9.456;2023-05-10T09:32:37;15.80;99.90
18384;DHT22;9318;48.644;9.456;2023-05-10T09:35:08;15.90;99.90
18384;DHT22;9318;48.644;9.456;2023-05-10T09:37:35;16.20;99.90
18384;DHT22;9318;48.644;9.456;2023-05-10T09:40:05;16.40;99.90
18384;DHT22;9318;48.644;9.456;2023-05-10T09:42:33;16.80;99.90
18384;DHT22;9318;48.644;9.456;2023-05-10T09:45:02;17.30;99.90
18384;DHT22;9318;48.644;9.456;2023-05-10T09:47:31;17.70;99.90
18384;DHT22;9318;48.644;9.456;2023-05-10T09:49:58;18.10;99.90
18384;DHT22;9318;48.644;9.456;2023-05-10T09:52:29;18.30;99.90
18384;DHT22;9318;48.644;9.456;2023-05-10T09:54:56;18.40;99.90
18384;DHT22;9318;48.644;9.456;2023-05-10T09:57:24;18.30;99.90
18384;DHT22;9318;48.644;9.456;2023-05-10T09:59:51;18.30;99.90
18384;DHT22;9318;48.644;9.456;2023-05-10T10:02:19;18.40;99.90
18384;DHT22;9318;48.644;9.456;2023-05-10T10:04:50;18.50;99.90
18384;DHT22;9318;48.644;9.456;2023-05-10T10:07:22;18.50;99.90
18384;DHT22;9318;48.644;9.456;2023-05-10T10:09:49;18.50;99.90
18384;DHT22;9318;48.644;9.456;2023-05-10T10:12:16;18.50;99.90
18384;DHT22;9318;48.644;9.456;2023-05-10T10:14:46;18.50;99.90
18384;DHT22;9318;48.644;9.456;2023-05-10T10:17:13;18.50;99.90
18384;DHT22;9318;48.644;9.456;2023-05-10T10:19:40;18.80;99.90
18384;DHT22;9318;48.644;9.456;2023-05-10T10:22:09;18.90;99.90
18384;DHT22;9318;48.644;9.456;2023-05-10T10:24:37;19.00;99.90
18384;DHT22;9318;48.644;9.456;2023-05-10T10:27:13;19.10;99.90
18384;DHT22;9318;48.644;9.456;2023-05-10T10:29:50;19.10;99.90
18384;DHT22;9318;48.644;9.456;2023-05-10T10:32:24;18.70;99.90
18384;DHT22;9318;48.644;9.456;2023-05-10T10:34:53;18.40;99.90
18384;DHT22;9318;48.644;9.456;2023-05-10T10:37:22;18.10;99.90
18384;DHT22;9318;48.644;9.456;2023-05-10T10:39:48;17.90;99.90
18384;DHT22;9318;48.644;9.456;2023-05-10T10:42:44;17.80;99.90
18384;DHT22;9318;48.644;9.456;2023-05-10T10:45:12;17.50;99.90
18384;DHT22;9318;48.644;9.456;2023-05-10T10:47:39;17.20;99.90
18384;DHT22;9318;48.644;9.456;2023-05-10T10:50:06;17.00;99.90
18384;DHT22;9318;48.644;9.456;2023-05-10T10:52:36;16.80;99.90
18384;DHT22;9318;48.644;9.456;2023-05-10T10:55:05;16.80;99.90
18384;DHT22;9318;48.644;9.456;2023-05-10T10:57:43;16.90;99.90
18384;DHT22;9318;48.644;9.456;2023-05-10T11:00:21;16.80;99.90
18384;DHT22;9318;48.644;9.456;2023-05-10T11:02:49;16.80;99.90
18384;DHT22;9318;48.644;9.456;2023-05-10T11:05:44;16.90;99.90
18384;DHT22;9318;48.644;9.456;2023-05-10T11:08:17;16.80;99.90
18384;DHT22;9318;48.644;9.456;2023-05-10T11:13:37;16.90;99.90
18384;DHT22;9318;48.644;9.456;2023-05-10T11:16:14;17.00;99.90
18384;DHT22;9318;48.644;9.456;2023-05-10T11:18:44;17.00;99.90
18384;DHT22;9318;48.644;9.456;2023-05-10T11:21:18;17.10;99.90
18384;DHT22;9318;48.644;9.456;2023-05-10T11:23:51;17.10;99.90
18384;DHT22;9318;48.644;9.456;2023-05-10T11:26:21;17.10;99.90
18384;DHT22;9318;48.644;9.456;2023-05-10T11:28:51;17.10;99.90
18384;DHT22;9318;48.644;9.456;2023-05-10T11:31:20;17.10;99.90
18384;DHT22;9318;48.644;9.456;2023-05-10T11:33:49;17.20;99.90
18384;DHT22;9318;48.644;9.456;2023-05-10T11:36:18;17.30;99.90
18384;DHT22;9318;48.644;9.456;2023-05-10T11:38:46;17.40;99.90
18384;DHT22;9318;48.644;9.456;2023-05-10T11:41:16;17.50;99.90
18384;DHT22;9318;48.644;9.456;2023-05-10T11:43:43;17.40;99.90
18384;DHT22;9318;48.644;9.456;2023-05-10T11:46:13;17.40;99.90
18384;DHT22;9318;48.644;9.456;2023-05-10T11:48:40;17.20;99.90
18384;DHT22;9318;48.644;9.456;2023-05-10T11:51:08;17.10;99.90
18384;DHT22;9318;48.644;9.456;2023-05-10T11:53:35;17.10;99.90
18384;DHT22;9318;48.644;9.456;2023-05-10T11:56:05;17.10;99.90
18384;DHT22;9318;48.644;9.456;2023-05-10T11:58:34;17.00;99.90
18384;DHT22;9318;48.644;9.456;2023-05-10T12:01:02;17.00;99.90
18384;DHT22;9318;48.644;9.456;2023-05-10T12:03:29;16.90;99.90
18384;DHT22;9318;48.644;9.456;2023-05-10T12:05:57;16.90;99.90
18384;DHT22;9318;48.644;9.456;2023-05-10T12:08:25;16.90;99.90
18384;DHT22;9318;48.644;9.456;2023-05-10T12:10:54;16.80;99.90
18384;DHT22;9318;48.644;9.456;2023-05-10T12:13:29;16.90;99.90
18384;DHT22;9318;48.644;9.456;2023-05-10T12:15:59;16.80;99.90
18384;DHT22;9318;48.644;9.456;2023-05-10T12:18:26;16.80;99.90
18384;DHT22;9318;48.644;9.456;2023-05-10T12:20:53;16.80;99.90
18384;DHT22;9318;48.644;9.456;2023-05-10T12:23:20;16.80;99.90
18384;DHT22;9318;48.644;9.456;2023-05-10T12:25:47;16.90;99.90
18384;DHT22;9318;48.644;9.456;2023-05-10T12:28:13;16.90;99.90
18384;DHT22;9318;48.644;9.456;2023-05-10T12:30:40;16.80;99.90
18384;DHT22;9318;48.644;9.456;2023-05-10T12:33:10;16.80;99.90
18384;DHT22;9318;48.644;9.456;2023-05-10T12:35:44;16.70;99.90
18384;DHT22;9318;48.644;9.456;2023-05-10T12:38:28;16.70;99.90
18384;DHT22;9318;48.644;9.456;2023-05-10T12:40:56;16.70;99.90
18384;DHT22;9318;48.644;9.456;2023-05-10T12:43:23;16.70;99.90
18384;DHT22;9318;48.644;9.456;2023-05-10T12:45:50;16.60;99.90
18384;DHT22;9318;48.644;9.456;2023-05-10T12:48:18;16.70;99.90
18384;DHT22;9318;48.644;9.456;2023-05-10T12:50:45;16.60;99.90
18384;DHT22;9318;48.644;9.456;2023-05-10T12:53:13;16.70;99.90
18384;DHT22;9318;48.644;9.456;2023-05-10T12:55:40;16.70;99.90
18384;DHT22;9318;48.644;9.456;2023-05-10T12:58:07;16.70;99.90
18384;DHT22;9318;48.644;9.456;2023-05-10T13:00:34;16.70;99.90
18384;DHT22;9318;48.644;9.456;2023-05-10T13:03:03;16.60;99.90
18384;DHT22;9318;48.644;9.456;2023-05-10T13:05:32;16.70;99.90
18384;DHT22;9318;48.644;9.456;2023-05-10T13:07:58;16.70;99.90
18384;DHT22;9318;48.644;9.456;2023-05-10T13:10:25;16.60;99.90
18384;DHT22;9318;48.644;9.456;2023-05-10T13:12:52;16.70;99.90
18384;DHT22;9318;48.644;9.456;2023-05-10T13:15:19;16.80;99.90
18384;DHT22;9318;48.644;9.456;2023-05-10T13:17:45;16.80;99.90
18384;DHT22;9318;48.644;9.456;2023-05-10T13:20:12;17.00;99.90
18384;DHT22;9318;48.644;9.456;2023-05-10T13:22:43;17.20;99.90
18384;DHT22;9318;48.644;9.456;2023-05-10T13:25:10;17.20;99.90
18384;DHT22;9318;48.644;9.456;2023-05-10T13:27:37;17.20;99.90
18384;DHT22;9318;48.644;9.456;2023-05-10T13:30:05;17.20;99.90
18384;DHT22;9318;48.644;9.456;2023-05-10T13:32:32;17.20;99.90
18384;DHT22;9318;48.644;9.456;2023-05-10T13:34:59;17.00;99.90
18384;DHT22;9318;48.644;9.456;2023-05-10T13:37:26;17.00;99.90
18384;DHT22;9318;48.644;9.456;2023-05-10T13:39:55;17.00;99.90
18384;DHT22;9318;48.644;9.456;2023-05-10T13:42:22;16.90;99.90
18384;DHT22;9318;48.644;9.456;2023-05-10T13:44:49;16.80;99.90
18384;DHT22;9318;48.644;9.456;2023-05-10T13:47:15;16.70;99.90
18384;DHT22;9318;48.644;9.456;2023-05-10T13:49:42;16.50;99.90
18384;DHT22;9318;48.644;9.456;2023-05-10T13:52:09;16.40;99.90
18384;DHT22;9318;48.644;9.456;2023-05-10T13:54:36;16.30;99.90
18384;DHT22;9318;48.644;9.456;2023-05-10T13:57:05;16.20;99.90
18384;DHT22;9318;48.644;9.456;2023-05-10T13:59:32;16.30;99.90
18384;DHT22;9318;48.644;9.456;2023-05-10T14:01:59;16.20;99.90
18384;DHT22;9318;48.644;9.456;2023-05-10T14:04:27;16.30;99.90
18384;DHT22;9318;48.644;9.456;2023-05-10T14:06:54;16.30;99.90
18384;DHT22;9318;48.644;9.456;2023-05-10T14:09:21;16.30;99.90
18384;DHT22;9318;48.644;9.456;2023-05-10T14:11:48;16.50;99.90
18384;DHT22;9318;48.644;9.456;2023-05-10T14:14:16;16.60;99.90
18384;DHT22;9318;48.644;9.456;2023-05-10T14:16:43;16.80;99.90
18384;DHT22;9318;48.644;9.456;2023-05-10T14:19:10;17.00;99.90
18384;DHT22;9318;48.644;9.456;2023-05-10T14:21:38;17.20;99.90
18384;DHT22;9318;48.644;9.456;2023-05-10T14:24:05;17.30;99.90
18384;DHT22;9318;48.644;9.456;2023-05-10T14:26:32;17.50;99.90
18384;DHT22;9318;48.644;9.456;2023-05-10T14:28:59;17.50;99.90
18384;DHT22;9318;48.644;9.456;2023-05-10T14:31:27;17.60;99.90
18384;DHT22;9318;48.644;9.456;2023-05-10T14:33:55;17.40;99.90
18384;DHT22;9318;48.644;9.456;2023-05-10T14:36:22;17.50;99.90
18384;DHT22;9318;48.644;9.456;2023-05-10T14:38:49;17.40;99.90
18384;DHT22;9318;48.644;9.456;2023-05-10T14:41:16;17.40;99.90
18384;DHT22;9318;48.644;9.456;2023-05-10T14:43:43;17.40;99.90
18384;DHT22;9318;48.644;9.456;2023-05-10T14:46:09;17.30;99.90
18384;DHT22;9318;48.644;9.456;2023-05-10T14:48:37;17.30;99.90
18384;DHT22;9318;48.644;9.456;2023-05-10T14:51:04;17.30;99.90
18384;DHT22;9318;48.644;9.456;2023-05-10T14:53:32;17.20;99.90
18384;DHT22;9318;48.644;9.456;2023-05-10T14:55:58;17.20;99.90
18384;DHT22;9318;48.644;9.456;2023-05-10T14:58:26;17.20;99.90
18384;DHT22;9318;48.644;9.456;2023-05-10T15:00:53;17.20;99.90
18384;DHT22;9318;48.644;9.456;2023-05-10T15:03:20;17.00;99.90
18384;DHT22;9318;48.644;9.456;2023-05-10T15:05:48;17.00;99.90
18384;DHT22;9318;48.644;9.456;2023-05-10T15:08:15;17.10;99.90
18384;DHT22;9318;48.644;9.456;2023-05-10T15:10:41;17.00;99.90
18384;DHT22;9318;48.644;9.456;2023-05-10T15:13:08;17.00;99.90
18384;DHT22;9318;48.644;9.456;2023-05-10T15:15:35;17.10;99.90
18384;DHT22;9318;48.644;9.456;2023-05-10T15:18:01;17.10;99.90
18384;DHT22;9318;48.644;9.456;2023-05-10T15:20:28;17.00;99.90
18384;DHT22;9318;48.644;9.456;2023-05-10T15:22:56;17.00;99.90
18384;DHT22;9318;48.644;9.456;2023-05-10T15:25:23;17.00;99.90
18384;DHT22;9318;48.644;9.456;2023-05-10T15:27:50;17.00;99.90
18384;DHT22;9318;48.644;9.456;2023-05-10T15:30:17;17.10;99.90
18384;DHT22;9318;48.644;9.456;2023-05-10T15:32:43;17.10;99.90
18384;DHT22;9318;48.644;9.456;2023-05-10T15:35:10;17.10;99.90
18384;DHT22;9318;48.644;9.456;2023-05-10T15:37:37;17.10;99.90
18384;DHT22;9318;48.644;9.456;2023-05-10T15:40:06;17.10;99.90
18384;DHT22;9318;48.644;9.456;2023-05-10T15:42:33;17.10;99.90
18384;DHT22;9318;48.644;9.456;2023-05-10T15:45:00;17.10;99.90
18384;DHT22;9318;48.644;9.456;2023-05-10T15:47:29;17.10;99.90
18384;DHT22;9318;48.644;9.456;2023-05-10T15:49:56;17.10;99.90
18384;DHT22;9318;48.644;9.456;2023-05-10T15:52:22;16.90;99.90
18384;DHT22;9318;48.644;9.456;2023-05-10T15:54:49;16.90;99.90